KRNO/RNO METAR and TAF weather

Enter ICAO airport designator
Station Type Date Time Source
KRNO METAR 2021/03/05 05:55 UTC NOAA

KRNO 050555Z VRB03KT 10SM CLR 06/M08 A3024 RMK AO2 SLP228 T00611078 10161 20061 51008


Station Type Date Time Source
KRNO Decoded METAR 2021/03/05 05:55 UTC NOAA

RENO/TAHOE INTERNATIONAL AIRPORT, NV, United States (KRNO) 39-29N 119-46W 1342M
Mar 05, 2021 - 12:55 AM EST / 2021.03.05 0555 UTC
Wind: Variable at 3 MPH (3 KT):0
Visibility: 10 mile(s):0
Sky conditions: clear
Temperature: 43.0 F (6.1 C)
Dew Point: 18.0 F (-7.8 C)
Relative Humidity: 36%
Pressure (altimeter): 30.24 in. Hg (1024 hPa)
Pressure tendency: 0.02 inches (0.8 hPa) higher than three hours ago
ob: KRNO 050555Z VRB03KT 10SM CLR 06/M08 A3024 RMK AO2 SLP228 T00611078 10161 20061 51008
cycle: 6

Station Type Date Time Source
KRNO TAF 2021/03/05 06:42 UTC NOAA

TAF KRNO 050539Z 0506/0606 VRB04KT P6SM FEW250
FM052100 19011G18KT P6SM SCT220
FM060300 20006KT P6SM BKN200 WS020/20035KT

Example: see airport list